Čačak-Preljina Airfield

LYCA · Serbie centrale, Serbia

METAR anciennes LYCA · Čačak-Preljina Airfield

Tu vois ci-dessous les METAR des derniers jours. Sélectionne une année pour parcourir les METAR plus anciens, à partir de l'année 2007.

19 mai 2024

Temps Code Temps Temp. Vue Base cloud Vent METAR/SPECI
03:30
V
16 °C 8 km - 360° 360° 0 kt METAR LYKV 190130Z 00000KT 8000 NSC 16/16 Q1012 NOSIG
03:00
V
16 °C 8 km - 360° 360° 0 kt METAR LYKV 190100Z 00000KT 8000 NSC 16/16 Q1012 NOSIG
02:30
V
16 °C 10 km+ - Var Var 2 kt METAR LYKV 190030Z VRB02KT 9999 FEW050 16/16 Q1012 NOSIG
02:00
V
16 °C 10 km+ - Var Var 1 kt METAR LYKV 190000Z VRB01KT 9999 FEW050 16/15 Q1013 NOSIG
01:30
V
16 °C 10 km+ - Var Var 1 kt METAR LYKV 182330Z VRB01KT 9999 -RA SCT045 16/15 Q1013 NOSIG
01:00
V
16 °C 10 km+ - Var Var 2 kt METAR LYKV 182300Z VRB02KT 9999 -RA SCT045 16/15 Q1014 NOSIG
00:30
V
17 °C 10 km+ - Var Var 1 kt METAR LYKV 182230Z VRB01KT 9999 -RA SCT045 17/15 Q1014 NOSIG
00:00
V
17 °C 10 km+ - 210° 210° 3 kt METAR LYKV 182200Z 21003KT 170V240 9999 -RA SCT045 17/15 Q1014 NOSIG

18 mai 2024

Temps Code Temps Temp. Vue Base cloud Vent METAR/SPECI
23:30
V
17 °C 10 km+ - Var Var 1 kt METAR LYKV 182130Z VRB01KT CAVOK 17/14 Q1013 NOSIG
23:00
V
17 °C 10 km+ - Var Var 1 kt METAR LYKV 182100Z VRB01KT CAVOK 17/13 Q1013 NOSIG
22:30
V
19 °C 10 km+ - 360° 360° 0 kt METAR LYKV 182030Z 00000KT CAVOK 19/13 Q1013 NOSIG
22:00
V
19 °C 10 km+ - 130° 130° 2 kt METAR LYKV 182000Z 13002KT CAVOK 19/13 Q1013 NOSIG
21:30
V
20 °C 10 km+ - Var Var 1 kt METAR LYKV 181930Z VRB01KT CAVOK 20/13 Q1013 NOSIG
21:00
V
19 °C 10 km+ - Var Var 2 kt METAR LYKV 181900Z VRB02KT CAVOK 19/13 Q1013 NOSIG
20:30
V
21 °C 10 km+ - Var Var 1 kt METAR LYKV 181830Z VRB01KT CAVOK 21/12 Q1013 NOSIG
20:00
V
22 °C 10 km+ - 020° 020° 3 kt METAR LYKV 181800Z 02003KT CAVOK 22/12 Q1013 NOSIG
19:30
V
23 °C 10 km+ - 040° 040° 3 kt METAR LYKV 181730Z 04003KT 010V070 CAVOK 23/12 Q1012 NOSIG
19:00
V
23 °C 10 km+ - 080° 080° 3 kt METAR LYKV 181700Z 08003KT CAVOK 23/12 Q1012 NOSIG
18:30
V
24 °C 10 km+ - 080° 080° 4 kt METAR LYKV 181630Z 08004KT 040V100 CAVOK 24/12 Q1012 NOSIG
18:00
V
24 °C 10 km+ - 110° 110° 4 kt METAR LYKV 181600Z 11004KT CAVOK 24/12 Q1012 NOSIG
17:30
V
25 °C 10 km+ - 110° 110° 5 kt METAR LYKV 181530Z 11005KT 070V150 CAVOK 25/12 Q1012 NOSIG
17:00
V
25 °C 10 km+ - 130° 130° 5 kt METAR LYKV 181500Z 13005KT 100V160 CAVOK 25/11 Q1013 NOSIG
16:30
V
26 °C 10 km+ - 120° 120° 5 kt METAR LYKV 181430Z 12005KT 080V160 CAVOK 26/11 Q1013 NOSIG
16:00
V
26 °C 10 km+ - 140° 140° 5 kt METAR LYKV 181400Z 14005KT 110V170 9999 FEW050 26/11 Q1013 NOSIG
15:30
V
26 °C 10 km+ - 130° 130° 5 kt METAR LYKV 181330Z 13005KT 080V190 9999 FEW050 26/11 Q1014 NOSIG
15:00
V
26 °C 10 km+ - 150° 150° 8 kt METAR LYKV 181300Z 15008KT 120V190 9999 FEW050 26/11 Q1014 NOSIG
14:30
V
26 °C 10 km+ - 160° 160° 7 kt METAR LYKV 181230Z 16007KT 120V210 9999 FEW050 26/11 Q1014 NOSIG
14:00
V
25 °C 10 km+ - 150° 150° 6 kt METAR LYKV 181200Z 15006KT 110V180 9999 FEW050 25/10 Q1014 NOSIG
13:30
V
26 °C 10 km+ - 150° 150° 3 kt METAR LYKV 181130Z 15003KT 070V200 9999 FEW050 26/09 Q1015 NOSIG
13:00
V
25 °C 10 km+ - Var Var 1 kt METAR LYKV 181100Z VRB01KT 9999 FEW050 25/09 Q1015 NOSIG
12:30
V
25 °C 10 km+ - Var Var 1 kt METAR LYKV 181030Z VRB01KT 9999 FEW050 25/09 Q1015 NOSIG
12:00
V
25 °C 10 km+ - Var Var 2 kt METAR LYKV 181000Z VRB02KT 9999 FEW050 25/09 Q1016 NOSIG
11:30
V
23 °C 10 km+ - Var Var 1 kt METAR LYKV 180930Z VRB01KT 9999 FEW050 23/11 Q1016 NOSIG
11:00
V
22 °C 10 km+ - Var Var 1 kt METAR LYKV 180900Z VRB01KT 9999 FEW050 22/13 Q1017 NOSIG
10:30
V
21 °C 10 km+ - 360° 360° 0 kt METAR LYKV 180830Z 00000KT 9999 FEW050 21/13 Q1017 NOSIG
10:00
V
19 °C 10 km+ - Var Var 1 kt METAR LYKV 180800Z VRB01KT 9999 FEW050 19/13 Q1017 NOSIG
09:30
V
18 °C 10 km+ - Var Var 1 kt METAR LYKV 180730Z VRB01KT CAVOK 18/13 Q1017 NOSIG
09:00
V
17 °C 10 km+ - Var Var 1 kt METAR LYKV 180700Z VRB01KT CAVOK 17/13 Q1017 NOSIG
08:30
V
16 °C 10 km+ - Var Var 1 kt METAR LYKV 180630Z VRB01KT CAVOK 16/13 Q1017 NOSIG
08:00
V
14 °C 10 km+ - 360° 360° 0 kt METAR LYKV 180600Z 00000KT CAVOK 14/12 Q1017 NOSIG
07:30
V
13 °C 10 km+ - 360° 360° 0 kt METAR LYKV 180530Z 00000KT 9999 SCT005 13/12 Q1017 NOSIG
07:00
V
11 °C 10 km+ - 360° 360° 0 kt METAR LYKV 180500Z 00000KT 9999 SCT005 11/11 Q1017 NOSIG
06:30
V
10 °C 8 km - 360° 360° 0 kt METAR LYKV 180430Z 00000KT 8000 SCT005 10/10 Q1017 NOSIG
06:00
M
8 °C 7 km - 360° 360° 0 kt METAR LYKV 180400Z 00000KT 7000 SCT003 08/08 Q1017 TEMPO BKN003
05:30
I
8 °C 3 km - 360° 360° 0 kt METAR LYKV 180330Z 00000KT 3000 BR NSC 08/08 Q1016 NOSIG
04:30
V
9 °C 10 km+ - 020° 020° 1 kt METAR LYKV 180230Z 02001KT CAVOK 09/09 Q1016 NOSIG
04:00
V
9 °C 10 km+ - 360° 360° 0 kt METAR LYKV 180200Z 00000KT CAVOK 09/09 Q1015 NOSIG
03:30
V
10 °C 10 km+ - Var Var 3 kt METAR LYKV 180130Z VRB03KT CAVOK 10/09 Q1015 NOSIG
03:00
V
10 °C 10 km+ - Var Var 2 kt METAR LYKV 180100Z VRB02KT CAVOK 10/10 Q1015 NOSIG
02:30
V
10 °C 10 km+ - 360° 360° 1 kt METAR LYKV 180030Z 36001KT CAVOK 10/09 Q1015 NOSIG
02:00
V
11 °C 10 km+ - 360° 360° 0 kt METAR LYKV 180000Z 00000KT CAVOK 11/10 Q1015 NOSIG
01:30
V
12 °C 10 km+ - Var Var 1 kt METAR LYKV 172330Z VRB01KT CAVOK 12/11 Q1015 NOSIG
01:00
V
13 °C 10 km+ - Var Var 2 kt METAR LYKV 172300Z VRB02KT CAVOK 13/11 Q1014 NOSIG
00:30
V
14 °C 10 km+ - 140° 140° 5 kt METAR LYKV 172230Z 14005KT CAVOK 14/11 Q1014 NOSIG
00:00
V
14 °C 10 km+ - 140° 140° 9 kt METAR LYKV 172200Z 14009KT CAVOK 14/11 Q1014 NOSIG

17 mai 2024

Temps Code Temps Temp. Vue Base cloud Vent METAR/SPECI
23:30
V
14 °C 10 km+ - 140° 140° 9 kt METAR LYKV 172130Z 14009KT CAVOK 14/11 Q1014 NOSIG
23:00
V
15 °C 10 km+ - 140° 140° 8 kt METAR LYKV 172100Z 14008KT CAVOK 15/11 Q1014 NOSIG
22:30
V
15 °C 10 km+ - 140° 140° 5 kt METAR LYKV 172030Z 14005KT 090V170 CAVOK 15/11 Q1013 NOSIG
22:00
V
15 °C 10 km+ - 180° 180° 5 kt METAR LYKV 172000Z 18005KT 150V210 CAVOK 15/11 Q1013 NOSIG
21:30
V
16 °C 10 km+ - 150° 150° 6 kt METAR LYKV 171930Z 15006KT 110V190 CAVOK 16/12 Q1013 NOSIG
21:00
V
16 °C 10 km+ - 150° 150° 5 kt METAR LYKV 171900Z 15005KT 120V180 CAVOK 16/11 Q1012 NOSIG
20:30
V
18 °C 10 km+ - 140° 140° 5 kt METAR LYKV 171830Z 14005KT 110V170 CAVOK 18/12 Q1012 NOSIG
20:00
V
19 °C 10 km+ - 120° 120° 8 kt METAR LYKV 171800Z 12008KT 080V170 CAVOK 19/12 Q1012 NOSIG
19:30
V
19 °C 10 km+ - 120° 120° 8 kt METAR LYKV 171730Z 12008KT 080V160 CAVOK 19/13 Q1011 NOSIG
19:00
V
20 °C 10 km+ - 120° 120° 8 kt METAR LYKV 171700Z 12008KT 080V160 CAVOK 20/13 Q1011 NOSIG
18:30
V
21 °C 10 km+ - 130° 130° 8 kt METAR LYKV 171630Z 13008KT 090V170 CAVOK 21/13 Q1011 NOSIG
18:00
V
21 °C 10 km+ - 130° 130° 12 kt METAR LYKV 171600Z 13012KT 090V150 CAVOK 21/14 Q1011 NOSIG
17:30
V
22 °C 10 km+ - 130° 130° 13 kt METAR LYKV 171530Z 13013KT CAVOK 22/14 Q1011 NOSIG
17:00
V
22 °C 10 km+ - 120° 120° 14 kt METAR LYKV 171500Z 12014KT 090V160 CAVOK 22/14 Q1011 NOSIG
16:30
V
22 °C 10 km+ - 130° 130° 12 kt METAR LYKV 171430Z 13012KT 100V160 CAVOK 22/14 Q1011 NOSIG
16:00
V
22 °C 10 km+ - 130° 130° 14 kt METAR LYKV 171400Z 13014KT 090V150 CAVOK 22/14 Q1011 NOSIG
15:30
V
22 °C 10 km+ - 130° 130° 15 - 26 kt METAR LYKV 171330Z 13015G26KT CAVOK 22/14 Q1011 NOSIG
15:00
V
22 °C 10 km+ - 120° 120° 15 kt METAR LYKV 171300Z 12015KT 090V150 CAVOK 22/14 Q1011 NOSIG
14:30
V
22 °C 10 km+ - 130° 130° 15 kt METAR LYKV 171230Z 13015KT 090V160 CAVOK 22/14 Q1012 NOSIG
14:00
V
22 °C 10 km+ - 130° 130° 13 kt METAR LYKV 171200Z 13013KT 090V160 CAVOK 22/14 Q1012 NOSIG
13:30
V
21 °C 10 km+ - 130° 130° 14 kt METAR LYKV 171130Z 13014KT 090V160 CAVOK 21/14 Q1012 NOSIG
13:00
V
20 °C 10 km+ - 120° 120° 15 kt METAR LYKV 171100Z 12015KT 080V150 CAVOK 20/13 Q1013 NOSIG
12:30
V
20 °C 10 km+ - 130° 130° 13 kt METAR LYKV 171030Z 13013KT 090V150 CAVOK 20/13 Q1013 NOSIG
12:00
V
19 °C 10 km+ - 120° 120° 13 kt METAR LYKV 171000Z 12013KT 080V150 CAVOK 19/12 Q1013 NOSIG
11:30
V
19 °C 10 km+ - 120° 120° 13 kt METAR LYKV 170930Z 12013KT 080V150 9999 FEW030 19/12 Q1013 NOSIG
11:00
V
18 °C 10 km+ - 120° 120° 15 kt METAR LYKV 170900Z 12015KT 9999 FEW030 18/12 Q1013 NOSIG
10:30
V
18 °C 10 km+ - 120° 120° 14 kt METAR LYKV 170830Z 12014KT 080V160 9999 FEW030 18/12 Q1013 NOSIG
10:00
V
17 °C 10 km+ - 130° 130° 15 kt METAR LYKV 170800Z 13015KT 9999 FEW030 17/11 Q1013 NOSIG
09:30
V
17 °C 10 km+ - 130° 130° 12 kt METAR LYKV 170730Z 13012KT 9999 FEW026 17/11 Q1013 NOSIG
09:00
V
16 °C 10 km+ - 130° 130° 14 kt METAR LYKV 170700Z 13014KT 070V160 CAVOK 16/11 Q1013 NOSIG
08:30
V
16 °C 10 km+ - 120° 120° 13 kt METAR LYKV 170630Z 12013KT 090V150 CAVOK 16/11 Q1013 NOSIG
08:00
V
15 °C 10 km+ - 120° 120° 11 kt METAR LYKV 170600Z 12011KT 090V160 CAVOK 15/11 Q1013 NOSIG
07:30
V
15 °C 10 km+ - 120° 120° 11 kt METAR LYKV 170530Z 12011KT 090V160 CAVOK 15/10 Q1012 NOSIG
07:00
V
15 °C 10 km+ - 120° 120° 13 kt METAR LYKV 170500Z 12013KT 100V160 CAVOK 15/10 Q1012 NOSIG
06:30
V
15 °C 10 km+ - 120° 120° 13 kt METAR LYKV 170430Z 12013KT CAVOK 15/10 Q1012 NOSIG
06:00
V
15 °C 10 km+ - 120° 120° 12 kt METAR LYKV 170400Z 12012KT 100V170 CAVOK 15/10 Q1012 NOSIG
05:30
V
15 °C 10 km+ - 120° 120° 14 kt METAR LYKV 170330Z 12014KT 090V160 CAVOK 15/10 Q1011 NOSIG
05:00
V
15 °C 10 km+ - 120° 120° 13 kt METAR LYKV 170300Z 12013KT CAVOK 15/10 Q1011 NOSIG
04:30
V
15 °C 10 km+ - 120° 120° 14 kt METAR LYKV 170230Z 12014KT 080V160 CAVOK 15/10 Q1011 NOSIG
04:00
V
15 °C 10 km+ - 130° 130° 16 kt METAR LYKV 170200Z 13016KT 100V160 CAVOK 15/10 Q1011 NOSIG
03:30
V
15 °C 10 km+ - 130° 130° 15 kt METAR LYKV 170130Z 13015KT 100V160 CAVOK 15/10 Q1011 NOSIG
03:00
V
15 °C 10 km+ - 120° 120° 13 kt METAR LYKV 170100Z 12013KT 100V160 CAVOK 15/11 Q1011 NOSIG
02:30
V
15 °C 10 km+ - 120° 120° 9 kt METAR LYKV 170030Z 12009KT 080V150 CAVOK 15/11 Q1011 NOSIG
02:00
V
15 °C 10 km+ - 120° 120° 11 kt METAR LYKV 170000Z 12011KT CAVOK 15/11 Q1011 NOSIG
01:30
V
15 °C 10 km+ - 120° 120° 12 kt METAR LYKV 162330Z 12012KT CAVOK 15/11 Q1012 NOSIG
01:00
V
15 °C 10 km+ - 120° 120° 10 kt METAR LYKV 162300Z 12010KT 100V170 CAVOK 15/11 Q1012 NOSIG
00:30
V
15 °C 10 km+ - 120° 120° 12 kt METAR LYKV 162230Z 12012KT CAVOK 15/11 Q1012 NOSIG
00:00
V
15 °C 10 km+ - 120° 120° 13 kt METAR LYKV 162200Z 12013KT CAVOK 15/11 Q1012 NOSIG

16 mai 2024

Temps Code Temps Temp. Vue Base cloud Vent METAR/SPECI
23:30
V
15 °C 10 km+ - 120° 120° 14 - 24 kt METAR LYKV 162130Z 12014G24KT CAVOK 15/11 Q1012 NOSIG
23:00
V
15 °C 10 km+ - 120° 120° 14 kt METAR LYKV 162100Z 12014KT 090V150 9999 SCT040 15/11 Q1013 NOSIG
22:30
V
15 °C 10 km+ - 120° 120° 12 kt METAR LYKV 162030Z 12012KT 100V160 9999 SCT060 15/11 Q1013 NOSIG
22:00
V
15 °C 10 km+ - 130° 130° 15 kt METAR LYKV 162000Z 13015KT 100V160 9999 SCT060 15/11 Q1013 NOSIG
21:30
V
15 °C 10 km+ - 120° 120° 12 kt METAR LYKV 161930Z 12012KT 9999 SCT060 15/11 Q1013 NOSIG
21:00
V
15 °C 10 km+ - 120° 120° 11 kt METAR LYKV 161900Z 12011KT 090V150 9999 SCT060 15/11 Q1013 NOSIG
20:30
V
15 °C 10 km+ - 120° 120° 12 - 22 kt METAR LYKV 161830Z 12012G22KT 9999 FEW013 SCT060 15/11 Q1013 NOSIG
20:00
V
15 °C 10 km+ - 120° 120° 12 kt METAR LYKV 161800Z 12012KT 080V150 9999 FEW013 SCT060 15/11 Q1013 NOSIG
19:30
V
15 °C 10 km+ - 120° 120° 15 kt METAR LYKV 161730Z 12015KT 080V140 9999 FEW013 SCT027 15/11 Q1012 NOSIG
19:00
V
15 °C 10 km+ - 130° 130° 12 kt METAR LYKV 161700Z 13012KT 100V160 9999 SCT013 SCT040 15/11 Q1013 NOSIG
18:30
V
15 °C 10 km+ - 130° 130° 12 kt METAR LYKV 161630Z 13012KT 090V170 9999 SCT013 SCT040 15/12 Q1013 NOSIG
18:00
V
14 °C 10 km+ - 140° 140° 14 - 24 kt METAR LYKV 161600Z 14014G24KT 9999 SCT013 SCT040 14/12 Q1013 NOSIG
17:30
V
15 °C 10 km+ - 130° 130° 15 kt METAR LYKV 161530Z 13015KT 100V160 9999 SCT017 SCT036 15/12 Q1013 NOSIG
17:00
V
14 °C 8 km - 120° 120° 12 kt METAR LYKV 161500Z 12012KT 080V140 8000 -RA FEW017 SCT036 14/12 Q1014 NOSIG
16:30
V
15 °C 10 km+ - 110° 110° 8 kt METAR LYKV 161430Z 11008KT 080V170 9999 -RA FEW017 SCT040 15/12 Q1015 NOSIG
16:00
V
15 °C 10 km+ - 120° 120° 13 kt METAR LYKV 161400Z 12013KT 090V150 9999 -RA FEW017 SCT040 15/12 Q1013 RESHRA NOSIG
15:30
V
15 °C 10 km+ - 120° 120° 15 kt METAR LYKV 161330Z 12015KT 9999 SHRA SCT033TCU SCT040 15/11 Q1013 BECMG NSW SCT040
15:00
V
16 °C 10 km+ - 120° 120° 12 kt METAR LYKV 161300Z 12012KT 060V150 9999 SCT033 16/11 Q1014 TEMPO SHRA SCT033TCU SCT040
14:30
V
17 °C 10 km+ - 120° 120° 13 kt METAR LYKV 161230Z 12013KT 090V150 9999 SCT033 17/11 Q1014 TEMPO SHRA SCT033TCU SCT040
14:00
V
17 °C 10 km+ - 120° 120° 15 kt METAR LYKV 161200Z 12015KT 080V160 9999 SCT036 17/11 Q1014 NOSIG
13:30
V
17 °C 10 km+ - 120° 120° 12 kt METAR LYKV 161130Z 12012KT 090V150 9999 FEW043 17/11 Q1014 NOSIG
13:00
V
18 °C 10 km+ - 130° 130° 19 kt METAR LYKV 161100Z 13019KT 9999 FEW040 18/11 Q1014 NOSIG
12:30
V
19 °C 10 km+ - 130° 130° 17 - 27 kt METAR LYKV 161030Z 13017G27KT 9999 FEW040 19/11 Q1014 NOSIG
12:00
V
18 °C 10 km+ - 130° 130° 17 kt METAR LYKV 161000Z 13017KT 9999 FEW040 18/11 Q1015 NOSIG
11:30
V
18 °C 10 km+ - 130° 130° 16 kt METAR LYKV 160930Z 13016KT 100V160 9999 FEW036 18/11 Q1015 NOSIG
11:00
V
18 °C 10 km+ - 130° 130° 18 kt METAR LYKV 160900Z 13018KT 100V160 9999 SCT036 18/11 Q1015 NOSIG
10:30
V
18 °C 10 km+ - 120° 120° 15 kt METAR LYKV 160830Z 12015KT 080V150 9999 SCT036 18/11 Q1015 NOSIG
10:00
V
17 °C 10 km+ - 120° 120° 14 kt METAR LYKV 160800Z 12014KT 100V160 9999 FEW033 17/11 Q1015 NOSIG
09:30
V
17 °C 10 km+ - 130° 130° 14 kt METAR LYKV 160730Z 13014KT 100V160 9999 SCT033 17/11 Q1015 NOSIG
09:00
V
16 °C 10 km+ - 130° 130° 12 kt METAR LYKV 160700Z 13012KT 100V160 9999 SCT033 16/11 Q1016 NOSIG
08:30
V
15 °C 10 km+ - 130° 130° 12 kt METAR LYKV 160630Z 13012KT 080V160 9999 SCT033 15/10 Q1016 NOSIG
08:00
V
14 °C 10 km+ - 130° 130° 11 kt METAR LYKV 160600Z 13011KT 100V160 9999 FEW020 SCT040 14/10 Q1016 NOSIG
Signaler les modifications